sensor_id;sensor_type;location;lat;lon;timestamp;P1;durP1;ratioP1;P2;durP2;ratioP2
29168;SDS011;16219;42.864;23.360;2023-02-28T00:01:47;0.55;;;0.55;;
29168;SDS011;16219;42.864;23.360;2023-02-28T00:04:15;1.50;;;1.23;;
29168;SDS011;16219;42.864;23.360;2023-02-28T00:06:43;1.20;;;1.10;;
29168;SDS011;16219;42.864;23.360;2023-02-28T00:09:11;1.65;;;0.93;;
29168;SDS011;16219;42.864;23.360;2023-02-28T00:11:38;0.82;;;0.82;;
29168;SDS011;16219;42.864;23.360;2023-02-28T00:14:06;0.80;;;0.80;;
29168;SDS011;16219;42.864;23.360;2023-02-28T00:16:34;0.77;;;0.77;;
29168;SDS011;16219;42.864;23.360;2023-02-28T00:19:01;0.80;;;0.80;;
29168;SDS011;16219;42.864;23.360;2023-02-28T00:21:28;1.10;;;1.00;;
29168;SDS011;16219;42.864;23.360;2023-02-28T00:23:57;4.43;;;1.33;;
29168;SDS011;16219;42.864;23.360;2023-02-28T00:26:25;0.77;;;0.77;;
29168;SDS011;16219;42.864;23.360;2023-02-28T00:28:52;0.55;;;0.55;;
29168;SDS011;16219;42.864;23.360;2023-02-28T00:31:21;1.08;;;1.08;;
29168;SDS011;16219;42.864;23.360;2023-02-28T00:33:49;1.13;;;0.75;;
29168;SDS011;16219;42.864;23.360;2023-02-28T00:36:17;0.93;;;0.93;;
29168;SDS011;16219;42.864;23.360;2023-02-28T00:38:44;1.55;;;1.40;;
29168;SDS011;16219;42.864;23.360;2023-02-28T00:41:13;0.85;;;0.85;;
29168;SDS011;16219;42.864;23.360;2023-02-28T00:43:41;1.23;;;1.08;;
29168;SDS011;16219;42.864;23.360;2023-02-28T00:46:10;1.25;;;1.20;;
29168;SDS011;16219;42.864;23.360;2023-02-28T00:48:37;2.97;;;1.50;;
29168;SDS011;16219;42.864;23.360;2023-02-28T00:51:05;1.60;;;1.50;;
29168;SDS011;16219;42.864;23.360;2023-02-28T00:53:32;1.50;;;1.25;;
29168;SDS011;16219;42.864;23.360;2023-02-28T00:56:00;1.98;;;1.75;;
29168;SDS011;16219;42.864;23.360;2023-02-28T00:58:29;2.53;;;2.15;;
29168;SDS011;16219;42.864;23.360;2023-02-28T01:00:56;1.20;;;1.15;;
29168;SDS011;16219;42.864;23.360;2023-02-28T01:03:23;1.63;;;1.17;;
29168;SDS011;16219;42.864;23.360;2023-02-28T01:05:51;1.75;;;1.48;;
29168;SDS011;16219;42.864;23.360;2023-02-28T01:08:19;2.10;;;1.90;;
29168;SDS011;16219;42.864;23.360;2023-02-28T01:16:11;0.82;;;0.82;;
29168;SDS011;16219;42.864;23.360;2023-02-28T01:18:40;2.42;;;2.05;;
29168;SDS011;16219;42.864;23.360;2023-02-28T01:21:07;2.05;;;1.50;;
29168;SDS011;16219;42.864;23.360;2023-02-28T01:23:37;1.15;;;1.15;;
29168;SDS011;16219;42.864;23.360;2023-02-28T01:26:05;2.10;;;1.70;;
29168;SDS011;16219;42.864;23.360;2023-02-28T01:28:33;2.33;;;1.83;;
29168;SDS011;16219;42.864;23.360;2023-02-28T01:31:00;1.58;;;1.27;;
29168;SDS011;16219;42.864;23.360;2023-02-28T01:33:29;0.88;;;0.85;;
29168;SDS011;16219;42.864;23.360;2023-02-28T01:35:58;1.58;;;1.48;;
29168;SDS011;16219;42.864;23.360;2023-02-28T01:38:28;2.83;;;1.52;;
29168;SDS011;16219;42.864;23.360;2023-02-28T01:40:55;1.60;;;1.50;;
29168;SDS011;16219;42.864;23.360;2023-02-28T01:43:24;0.90;;;0.90;;
29168;SDS011;16219;42.864;23.360;2023-02-28T01:45:54;1.95;;;1.77;;
29168;SDS011;16219;42.864;23.360;2023-02-28T01:48:24;2.28;;;1.52;;
29168;SDS011;16219;42.864;23.360;2023-02-28T01:50:56;0.88;;;0.88;;
29168;SDS011;16219;42.864;23.360;2023-02-28T01:53:29;1.98;;;1.77;;
29168;SDS011;16219;42.864;23.360;2023-02-28T01:56:02;5.95;;;3.35;;
29168;SDS011;16219;42.864;23.360;2023-02-28T01:58:32;2.42;;;2.22;;
29168;SDS011;16219;42.864;23.360;2023-02-28T02:01:00;4.15;;;2.28;;
29168;SDS011;16219;42.864;23.360;2023-02-28T02:03:28;2.33;;;2.03;;
29168;SDS011;16219;42.864;23.360;2023-02-28T02:05:58;8.15;;;3.17;;
29168;SDS011;16219;42.864;23.360;2023-02-28T02:08:26;3.00;;;1.73;;
29168;SDS011;16219;42.864;23.360;2023-02-28T02:10:56;1.80;;;1.70;;
29168;SDS011;16219;42.864;23.360;2023-02-28T02:13:33;3.35;;;1.75;;
29168;SDS011;16219;42.864;23.360;2023-02-28T02:18:47;1.13;;;1.13;;
29168;SDS011;16219;42.864;23.360;2023-02-28T02:21:44;1.58;;;1.48;;
29168;SDS011;16219;42.864;23.360;2023-02-28T02:24:47;1.60;;;1.50;;
29168;SDS011;16219;42.864;23.360;2023-02-28T02:27:39;2.47;;;1.88;;
29168;SDS011;16219;42.864;23.360;2023-02-28T02:30:33;1.43;;;1.37;;
29168;SDS011;16219;42.864;23.360;2023-02-28T02:43:26;2.85;;;1.77;;
29168;SDS011;16219;42.864;23.360;2023-02-28T02:46:01;3.35;;;2.22;;
29168;SDS011;16219;42.864;23.360;2023-02-28T02:48:33;3.45;;;1.55;;
29168;SDS011;16219;42.864;23.360;2023-02-28T02:51:06;1.20;;;1.20;;
29168;SDS011;16219;42.864;23.360;2023-02-28T02:53:41;4.20;;;2.72;;
29168;SDS011;16219;42.864;23.360;2023-02-28T02:56:15;1.75;;;1.65;;
29168;SDS011;16219;42.864;23.360;2023-02-28T02:58:47;3.28;;;2.03;;
29168;SDS011;16219;42.864;23.360;2023-02-28T03:01:17;1.23;;;1.02;;
29168;SDS011;16219;42.864;23.360;2023-02-28T03:03:54;1.08;;;1.08;;
29168;SDS011;16219;42.864;23.360;2023-02-28T03:06:23;2.33;;;1.90;;
29168;SDS011;16219;42.864;23.360;2023-02-28T03:08:50;2.20;;;1.45;;
29168;SDS011;16219;42.864;23.360;2023-02-28T03:11:18;1.05;;;1.02;;
29168;SDS011;16219;42.864;23.360;2023-02-28T03:16:52;1.42;;;1.33;;
29168;SDS011;16219;42.864;23.360;2023-02-28T03:19:45;2.15;;;1.63;;
29168;SDS011;16219;42.864;23.360;2023-02-28T03:22:21;1.40;;;1.30;;
29168;SDS011;16219;42.864;23.360;2023-02-28T03:25:00;1.38;;;1.27;;
29168;SDS011;16219;42.864;23.360;2023-02-28T03:27:36;1.50;;;1.05;;
29168;SDS011;16219;42.864;23.360;2023-02-28T03:30:12;0.73;;;0.73;;
29168;SDS011;16219;42.864;23.360;2023-02-28T03:32:50;1.15;;;1.10;;
29168;SDS011;16219;42.864;23.360;2023-02-28T03:35:22;1.38;;;1.15;;
29168;SDS011;16219;42.864;23.360;2023-02-28T03:37:53;1.55;;;1.45;;
29168;SDS011;16219;42.864;23.360;2023-02-28T03:40:26;14.15;;;1.48;;
29168;SDS011;16219;42.864;23.360;2023-02-28T03:42:57;0.80;;;0.80;;
29168;SDS011;16219;42.864;23.360;2023-02-28T03:45:32;5.93;;;1.50;;
29168;SDS011;16219;42.864;23.360;2023-02-28T03:48:04;1.25;;;1.13;;
29168;SDS011;16219;42.864;23.360;2023-02-28T03:50:37;1.05;;;1.05;;
29168;SDS011;16219;42.864;23.360;2023-02-28T03:53:08;1.40;;;1.30;;
29168;SDS011;16219;42.864;23.360;2023-02-28T03:55:41;1.80;;;1.30;;
29168;SDS011;16219;42.864;23.360;2023-02-28T03:58:12;1.85;;;0.98;;
29168;SDS011;16219;42.864;23.360;2023-02-28T04:00:46;1.08;;;1.08;;
29168;SDS011;16219;42.864;23.360;2023-02-28T04:03:17;2.30;;;1.20;;
29168;SDS011;16219;42.864;23.360;2023-02-28T05:08:04;0.95;;;0.93;;
29168;SDS011;16219;42.864;23.360;2023-02-28T05:10:32;0.95;;;0.82;;
29168;SDS011;16219;42.864;23.360;2023-02-28T05:12:59;0.85;;;0.85;;
29168;SDS011;16219;42.864;23.360;2023-02-28T05:15:27;2.58;;;1.42;;
29168;SDS011;16219;42.864;23.360;2023-02-28T05:17:54;3.25;;;1.88;;
29168;SDS011;16219;42.864;23.360;2023-02-28T05:20:21;1.75;;;1.65;;
29168;SDS011;16219;42.864;23.360;2023-02-28T05:22:49;1.05;;;0.80;;
29168;SDS011;16219;42.864;23.360;2023-02-28T05:25:19;0.50;;;0.50;;
29168;SDS011;16219;42.864;23.360;2023-02-28T05:27:48;1.38;;;1.00;;
29168;SDS011;16219;42.864;23.360;2023-02-28T05:30:16;1.35;;;1.13;;
29168;SDS011;16219;42.864;23.360;2023-02-28T05:32:43;0.95;;;0.95;;
29168;SDS011;16219;42.864;23.360;2023-02-28T05:35:16;0.60;;;0.60;;
29168;SDS011;16219;42.864;23.360;2023-02-28T05:37:44;1.00;;;0.95;;
29168;SDS011;16219;42.864;23.360;2023-02-28T05:40:11;0.60;;;0.60;;
29168;SDS011;16219;42.864;23.360;2023-02-28T05:42:41;1.23;;;0.88;;
29168;SDS011;16219;42.864;23.360;2023-02-28T05:45:09;1.30;;;1.02;;
29168;SDS011;16219;42.864;23.360;2023-02-28T05:47:37;1.42;;;0.80;;
29168;SDS011;16219;42.864;23.360;2023-02-28T05:50:05;1.55;;;1.15;;
29168;SDS011;16219;42.864;23.360;2023-02-28T05:52:34;2.58;;;0.60;;
29168;SDS011;16219;42.864;23.360;2023-02-28T05:55:02;1.08;;;1.00;;
29168;SDS011;16219;42.864;23.360;2023-02-28T05:57:30;0.40;;;0.40;;
29168;SDS011;16219;42.864;23.360;2023-02-28T05:59:58;0.60;;;0.60;;
29168;SDS011;16219;42.864;23.360;2023-02-28T06:02:26;1.40;;;1.02;;
29168;SDS011;16219;42.864;23.360;2023-02-28T06:04:53;1.60;;;1.27;;
29168;SDS011;16219;42.864;23.360;2023-02-28T06:07:21;1.73;;;1.17;;
29168;SDS011;16219;42.864;23.360;2023-02-28T06:09:48;1.55;;;1.45;;
29168;SDS011;16219;42.864;23.360;2023-02-28T06:12:15;2.20;;;1.77;;
29168;SDS011;16219;42.864;23.360;2023-02-28T06:14:43;1.95;;;1.58;;
29168;SDS011;16219;42.864;23.360;2023-02-28T06:17:11;3.38;;;1.70;;
29168;SDS011;16219;42.864;23.360;2023-02-28T06:19:39;9.15;;;2.13;;
29168;SDS011;16219;42.864;23.360;2023-02-28T06:22:06;2.75;;;1.40;;
29168;SDS011;16219;42.864;23.360;2023-02-28T06:24:34;1.45;;;1.35;;
29168;SDS011;16219;42.864;23.360;2023-02-28T06:27:01;1.25;;;1.15;;
29168;SDS011;16219;42.864;23.360;2023-02-28T06:29:30;3.35;;;2.13;;
29168;SDS011;16219;42.864;23.360;2023-02-28T06:31:57;1.70;;;1.60;;
29168;SDS011;16219;42.864;23.360;2023-02-28T06:34:26;6.70;;;1.83;;
29168;SDS011;16219;42.864;23.360;2023-02-28T06:36:54;1.42;;;1.35;;
29168;SDS011;16219;42.864;23.360;2023-02-28T06:39:21;1.27;;;1.25;;
29168;SDS011;16219;42.864;23.360;2023-02-28T06:41:48;1.30;;;1.08;;
29168;SDS011;16219;42.864;23.360;2023-02-28T06:44:17;5.75;;;1.60;;
29168;SDS011;16219;42.864;23.360;2023-02-28T06:46:45;1.48;;;1.38;;
29168;SDS011;16219;42.864;23.360;2023-02-28T06:49:13;2.03;;;1.85;;
29168;SDS011;16219;42.864;23.360;2023-02-28T06:51:42;3.58;;;2.35;;
29168;SDS011;16219;42.864;23.360;2023-02-28T06:54:11;1.67;;;1.50;;
29168;SDS011;16219;42.864;23.360;2023-02-28T06:56:39;1.85;;;1.73;;
29168;SDS011;16219;42.864;23.360;2023-02-28T06:59:06;2.50;;;1.95;;
29168;SDS011;16219;42.864;23.360;2023-02-28T07:01:33;2.45;;;2.25;;
29168;SDS011;16219;42.864;23.360;2023-02-28T07:04:01;1.52;;;1.42;;
29168;SDS011;16219;42.864;23.360;2023-02-28T07:06:29;2.70;;;1.95;;
29168;SDS011;16219;42.864;23.360;2023-02-28T07:08:58;3.35;;;2.67;;
29168;SDS011;16219;42.864;23.360;2023-02-28T07:11:26;2.85;;;2.08;;
29168;SDS011;16219;42.864;23.360;2023-02-28T07:13:54;1.80;;;1.70;;
29168;SDS011;16219;42.864;23.360;2023-02-28T07:16:22;3.33;;;2.58;;
29168;SDS011;16219;42.864;23.360;2023-02-28T07:18:52;1.45;;;1.40;;
29168;SDS011;16219;42.864;23.360;2023-02-28T07:21:20;1.25;;;1.25;;
29168;SDS011;16219;42.864;23.360;2023-02-28T07:23:48;3.03;;;1.77;;
29168;SDS011;16219;42.864;23.360;2023-02-28T07:26:17;1.88;;;1.58;;
29168;SDS011;16219;42.864;23.360;2023-02-28T07:28:46;2.50;;;2.05;;
29168;SDS011;16219;42.864;23.360;2023-02-28T07:31:14;5.13;;;1.98;;
29168;SDS011;16219;42.864;23.360;2023-02-28T07:33:43;1.77;;;1.38;;
29168;SDS011;16219;42.864;23.360;2023-02-28T07:36:11;10.65;;;2.17;;
29168;SDS011;16219;42.864;23.360;2023-02-28T07:38:41;1.45;;;1.35;;
29168;SDS011;16219;42.864;23.360;2023-02-28T07:41:09;1.25;;;1.23;;
29168;SDS011;16219;42.864;23.360;2023-02-28T07:43:38;2.83;;;1.98;;
29168;SDS011;16219;42.864;23.360;2023-02-28T07:46:06;2.08;;;1.40;;
29168;SDS011;16219;42.864;23.360;2023-02-28T07:48:35;2.95;;;2.03;;
29168;SDS011;16219;42.864;23.360;2023-02-28T07:51:03;1.17;;;1.17;;
29168;SDS011;16219;42.864;23.360;2023-02-28T07:53:30;1.55;;;1.45;;
29168;SDS011;16219;42.864;23.360;2023-02-28T07:55:58;2.85;;;2.28;;
29168;SDS011;16219;42.864;23.360;2023-02-28T07:58:27;4.80;;;2.45;;
29168;SDS011;16219;42.864;23.360;2023-02-28T08:00:57;2.63;;;1.88;;
29168;SDS011;16219;42.864;23.360;2023-02-28T08:03:32;1.83;;;1.40;;
29168;SDS011;16219;42.864;23.360;2023-02-28T08:06:00;1.80;;;1.65;;
29168;SDS011;16219;42.864;23.360;2023-02-28T08:08:29;1.50;;;1.40;;
29168;SDS011;16219;42.864;23.360;2023-02-28T08:10:58;2.30;;;2.10;;
29168;SDS011;16219;42.864;23.360;2023-02-28T08:13:27;1.65;;;1.55;;
29168;SDS011;16219;42.864;23.360;2023-02-28T08:15:54;2.05;;;1.80;;
29168;SDS011;16219;42.864;23.360;2023-02-28T08:18:24;3.30;;;2.58;;
29168;SDS011;16219;42.864;23.360;2023-02-28T08:20:51;1.20;;;1.10;;
29168;SDS011;16219;42.864;23.360;2023-02-28T08:23:19;3.53;;;1.48;;
29168;SDS011;16219;42.864;23.360;2023-02-28T08:25:52;1.35;;;1.25;;
29168;SDS011;16219;42.864;23.360;2023-02-28T08:28:20;2.17;;;1.98;;
29168;SDS011;16219;42.864;23.360;2023-02-28T08:30:47;2.22;;;2.03;;
29168;SDS011;16219;42.864;23.360;2023-02-28T08:33:14;3.45;;;1.88;;
29168;SDS011;16219;42.864;23.360;2023-02-28T08:35:42;2.72;;;1.85;;
29168;SDS011;16219;42.864;23.360;2023-02-28T08:38:10;2.17;;;1.30;;
29168;SDS011;16219;42.864;23.360;2023-02-28T08:40:37;4.75;;;1.98;;
29168;SDS011;16219;42.864;23.360;2023-02-28T08:43:04;1.70;;;1.55;;
29168;SDS011;16219;42.864;23.360;2023-02-28T08:45:31;1.92;;;1.55;;
29168;SDS011;16219;42.864;23.360;2023-02-28T08:47:58;4.43;;;1.98;;
29168;SDS011;16219;42.864;23.360;2023-02-28T08:50:25;3.80;;;1.98;;
29168;SDS011;16219;42.864;23.360;2023-02-28T08:52:54;2.35;;;2.05;;
29168;SDS011;16219;42.864;23.360;2023-02-28T08:55:21;2.53;;;2.00;;
29168;SDS011;16219;42.864;23.360;2023-02-28T08:57:48;3.20;;;2.08;;
29168;SDS011;16219;42.864;23.360;2023-02-28T09:00:16;2.55;;;2.05;;
29168;SDS011;16219;42.864;23.360;2023-02-28T09:02:44;3.20;;;2.53;;
29168;SDS011;16219;42.864;23.360;2023-02-28T09:05:11;2.83;;;2.10;;
29168;SDS011;16219;42.864;23.360;2023-02-28T09:07:38;2.13;;;1.90;;
29168;SDS011;16219;42.864;23.360;2023-02-28T09:10:07;1.50;;;1.40;;
29168;SDS011;16219;42.864;23.360;2023-02-28T09:12:35;7.30;;;2.70;;
29168;SDS011;16219;42.864;23.360;2023-02-28T09:15:03;2.08;;;1.63;;
29168;SDS011;16219;42.864;23.360;2023-02-28T09:17:31;2.35;;;1.92;;
29168;SDS011;16219;42.864;23.360;2023-02-28T09:19:58;2.60;;;1.88;;
29168;SDS011;16219;42.864;23.360;2023-02-28T09:22:25;2.95;;;2.08;;
29168;SDS011;16219;42.864;23.360;2023-02-28T09:24:52;3.42;;;1.60;;
29168;SDS011;16219;42.864;23.360;2023-02-28T09:27:21;1.60;;;1.50;;
29168;SDS011;16219;42.864;23.360;2023-02-28T09:29:48;1.63;;;1.52;;
29168;SDS011;16219;42.864;23.360;2023-02-28T09:32:16;2.90;;;2.20;;
29168;SDS011;16219;42.864;23.360;2023-02-28T09:34:43;3.03;;;2.25;;
29168;SDS011;16219;42.864;23.360;2023-02-28T09:37:10;7.40;;;1.85;;
29168;SDS011;16219;42.864;23.360;2023-02-28T09:39:37;2.80;;;2.50;;
29168;SDS011;16219;42.864;23.360;2023-02-28T09:42:05;3.60;;;2.10;;
29168;SDS011;16219;42.864;23.360;2023-02-28T09:44:35;2.03;;;1.67;;
29168;SDS011;16219;42.864;23.360;2023-02-28T09:47:07;3.17;;;2.70;;
29168;SDS011;16219;42.864;23.360;2023-02-28T09:49:40;5.25;;;3.20;;
29168;SDS011;16219;42.864;23.360;2023-02-28T09:52:09;2.40;;;2.20;;
29168;SDS011;16219;42.864;23.360;2023-02-28T09:54:39;2.60;;;1.85;;
29168;SDS011;16219;42.864;23.360;2023-02-28T09:57:07;3.22;;;2.83;;
29168;SDS011;16219;42.864;23.360;2023-02-28T09:59:48;1.75;;;1.45;;
29168;SDS011;16219;42.864;23.360;2023-02-28T10:02:52;3.92;;;3.20;;
29168;SDS011;16219;42.864;23.360;2023-02-28T10:05:40;2.47;;;1.90;;
29168;SDS011;16219;42.864;23.360;2023-02-28T10:08:11;3.90;;;2.38;;
29168;SDS011;16219;42.864;23.360;2023-02-28T10:10:41;3.97;;;2.42;;
29168;SDS011;16219;42.864;23.360;2023-02-28T10:13:19;3.40;;;2.70;;
29168;SDS011;16219;42.864;23.360;2023-02-28T10:15:54;3.13;;;2.58;;
29168;SDS011;16219;42.864;23.360;2023-02-28T10:18:25;2.88;;;2.67;;
29168;SDS011;16219;42.864;23.360;2023-02-28T10:20:56;5.45;;;3.60;;
29168;SDS011;16219;42.864;23.360;2023-02-28T10:23:32;2.60;;;2.40;;
29168;SDS011;16219;42.864;23.360;2023-02-28T10:26:11;4.50;;;2.88;;
29168;SDS011;16219;42.864;23.360;2023-02-28T10:28:44;8.52;;;3.53;;
29168;SDS011;16219;42.864;23.360;2023-02-28T10:34:29;12.35;;;3.30;;
29168;SDS011;16219;42.864;23.360;2023-02-28T10:37:01;5.93;;;4.38;;
29168;SDS011;16219;42.864;23.360;2023-02-28T10:39:37;5.63;;;4.18;;
29168;SDS011;16219;42.864;23.360;2023-02-28T10:42:22;5.28;;;3.38;;
29168;SDS011;16219;42.864;23.360;2023-02-28T10:45:20;3.92;;;3.13;;
29168;SDS011;16219;42.864;23.360;2023-02-28T10:51:10;5.63;;;3.15;;
29168;SDS011;16219;42.864;23.360;2023-02-28T10:53:45;9.18;;;3.50;;
29168;SDS011;16219;42.864;23.360;2023-02-28T10:56:32;4.35;;;3.25;;
29168;SDS011;16219;42.864;23.360;2023-02-28T11:02:30;2.42;;;1.98;;
29168;SDS011;16219;42.864;23.360;2023-02-28T11:08:14;7.00;;;3.08;;
29168;SDS011;16219;42.864;23.360;2023-02-28T11:11:05;9.45;;;2.42;;
29168;SDS011;16219;42.864;23.360;2023-02-28T11:13:44;3.47;;;3.03;;
29168;SDS011;16219;42.864;23.360;2023-02-28T11:16:33;3.75;;;2.13;;
29168;SDS011;16219;42.864;23.360;2023-02-28T11:19:20;4.07;;;2.65;;
29168;SDS011;16219;42.864;23.360;2023-02-28T11:22:06;3.40;;;2.28;;
29168;SDS011;16219;42.864;23.360;2023-02-28T11:24:55;2.85;;;2.40;;
29168;SDS011;16219;42.864;23.360;2023-02-28T11:27:57;4.18;;;3.13;;
29168;SDS011;16219;42.864;23.360;2023-02-28T11:30:39;3.58;;;1.88;;
29168;SDS011;16219;42.864;23.360;2023-02-28T11:33:23;2.33;;;2.03;;
29168;SDS011;16219;42.864;23.360;2023-02-28T11:36:08;4.13;;;2.85;;
29168;SDS011;16219;42.864;23.360;2023-02-28T11:49:05;2.35;;;2.17;;
29168;SDS011;16219;42.864;23.360;2023-02-28T11:52:05;2.60;;;2.40;;
29168;SDS011;16219;42.864;23.360;2023-02-28T11:55:14;7.90;;;3.78;;
29168;SDS011;16219;42.864;23.360;2023-02-28T11:58:02;6.55;;;3.90;;
29168;SDS011;16219;42.864;23.360;2023-02-28T12:05:24;5.15;;;3.38;;
29168;SDS011;16219;42.864;23.360;2023-02-28T12:12:06;7.13;;;4.32;;
29168;SDS011;16219;42.864;23.360;2023-02-28T12:15:02;5.82;;;4.72;;
29168;SDS011;16219;42.864;23.360;2023-02-28T12:18:23;5.30;;;2.75;;
29168;SDS011;16219;42.864;23.360;2023-02-28T12:21:20;8.30;;;3.47;;
29168;SDS011;16219;42.864;23.360;2023-02-28T12:24:03;5.63;;;2.88;;
29168;SDS011;16219;42.864;23.360;2023-02-28T12:26:46;3.72;;;3.08;;
29168;SDS011;16219;42.864;23.360;2023-02-28T12:29:34;4.68;;;3.08;;
29168;SDS011;16219;42.864;23.360;2023-02-28T12:32:18;4.18;;;3.80;;
29168;SDS011;16219;42.864;23.360;2023-02-28T12:38:42;4.40;;;3.88;;
29168;SDS011;16219;42.864;23.360;2023-02-28T12:41:19;5.25;;;3.95;;
29168;SDS011;16219;42.864;23.360;2023-02-28T12:44:16;4.43;;;3.40;;
29168;SDS011;16219;42.864;23.360;2023-02-28T12:46:56;6.30;;;2.35;;
29168;SDS011;16219;42.864;23.360;2023-02-28T12:49:34;1.52;;;1.42;;
29168;SDS011;16219;42.864;23.360;2023-02-28T12:52:23;1.88;;;1.77;;
29168;SDS011;16219;42.864;23.360;2023-02-28T13:16:01;4.30;;;1.50;;
29168;SDS011;16219;42.864;23.360;2023-02-28T13:19:08;1.08;;;0.98;;
29168;SDS011;16219;42.864;23.360;2023-02-28T13:29:03;2.65;;;1.98;;
29168;SDS011;16219;42.864;23.360;2023-02-28T13:38:17;1.92;;;1.83;;
29168;SDS011;16219;42.864;23.360;2023-02-28T13:40:50;2.65;;;1.42;;
29168;SDS011;16219;42.864;23.360;2023-02-28T13:43:18;1.75;;;1.65;;
29168;SDS011;16219;42.864;23.360;2023-02-28T13:48:36;2.75;;;2.08;;
29168;SDS011;16219;42.864;23.360;2023-02-28T13:54:09;3.00;;;1.85;;
29168;SDS011;16219;42.864;23.360;2023-02-28T13:56:47;1.23;;;1.13;;
29168;SDS011;16219;42.864;23.360;2023-02-28T13:59:23;6.53;;;2.05;;
29168;SDS011;16219;42.864;23.360;2023-02-28T14:02:03;5.53;;;1.30;;
29168;SDS011;16219;42.864;23.360;2023-02-28T14:04:51;2.22;;;1.85;;
29168;SDS011;16219;42.864;23.360;2023-02-28T14:07:27;2.20;;;1.63;;
29168;SDS011;16219;42.864;23.360;2023-02-28T14:09:59;1.70;;;1.55;;
29168;SDS011;16219;42.864;23.360;2023-02-28T14:15:36;2.28;;;1.38;;
29168;SDS011;16219;42.864;23.360;2023-02-28T14:18:13;2.25;;;2.05;;
29168;SDS011;16219;42.864;23.360;2023-02-28T14:20:44;1.83;;;1.27;;
29168;SDS011;16219;42.864;23.360;2023-02-28T14:23:16;1.95;;;1.45;;
29168;SDS011;16219;42.864;23.360;2023-02-28T14:26:00;1.20;;;1.20;;
29168;SDS011;16219;42.864;23.360;2023-02-28T14:28:40;1.23;;;1.13;;
29168;SDS011;16219;42.864;23.360;2023-02-28T14:31:15;2.35;;;2.13;;
29168;SDS011;16219;42.864;23.360;2023-02-28T14:36:50;1.00;;;1.00;;
29168;SDS011;16219;42.864;23.360;2023-02-28T14:39:21;1.60;;;1.50;;
29168;SDS011;16219;42.864;23.360;2023-02-28T14:41:51;5.30;;;1.40;;
29168;SDS011;16219;42.864;23.360;2023-02-28T14:44:19;2.67;;;1.90;;
29168;SDS011;16219;42.864;23.360;2023-02-28T14:46:49;0.70;;;0.70;;
29168;SDS011;16219;42.864;23.360;2023-02-28T14:49:21;3.97;;;2.13;;
29168;SDS011;16219;42.864;23.360;2023-02-28T14:54:28;1.60;;;1.50;;
29168;SDS011;16219;42.864;23.360;2023-02-28T14:56:56;1.85;;;1.52;;
29168;SDS011;16219;42.864;23.360;2023-02-28T14:59:25;2.90;;;1.73;;
29168;SDS011;16219;42.864;23.360;2023-02-28T15:04:54;5.63;;;1.23;;
29168;SDS011;16219;42.864;23.360;2023-02-28T15:07:23;2.67;;;0.93;;
29168;SDS011;16219;42.864;23.360;2023-02-28T15:10:06;1.65;;;1.50;;
29168;SDS011;16219;42.864;23.360;2023-02-28T15:12:35;1.05;;;1.05;;
29168;SDS011;16219;42.864;23.360;2023-02-28T15:15:04;1.70;;;1.55;;
29168;SDS011;16219;42.864;23.360;2023-02-28T15:17:33;8.02;;;2.25;;
29168;SDS011;16219;42.864;23.360;2023-02-28T15:20:03;1.70;;;1.60;;
29168;SDS011;16219;42.864;23.360;2023-02-28T15:22:33;1.75;;;1.65;;
29168;SDS011;16219;42.864;23.360;2023-02-28T15:25:04;4.15;;;2.08;;
29168;SDS011;16219;42.864;23.360;2023-02-28T15:27:33;2.10;;;1.60;;
29168;SDS011;16219;42.864;23.360;2023-02-28T15:30:13;1.15;;;1.13;;
29168;SDS011;16219;42.864;23.360;2023-02-28T15:35:19;1.48;;;1.10;;
29168;SDS011;16219;42.864;23.360;2023-02-28T15:37:54;1.33;;;1.20;;
29168;SDS011;16219;42.864;23.360;2023-02-28T15:40:24;1.38;;;1.27;;
29168;SDS011;16219;42.864;23.360;2023-02-28T15:42:58;2.05;;;1.85;;
29168;SDS011;16219;42.864;23.360;2023-02-28T15:45:34;1.95;;;1.58;;
29168;SDS011;16219;42.864;23.360;2023-02-28T15:48:11;0.75;;;0.73;;
29168;SDS011;16219;42.864;23.360;2023-02-28T15:50:48;0.80;;;0.80;;
29168;SDS011;16219;42.864;23.360;2023-02-28T15:53:19;2.75;;;1.38;;
29168;SDS011;16219;42.864;23.360;2023-02-28T15:55:58;1.35;;;1.02;;
29168;SDS011;16219;42.864;23.360;2023-02-28T15:58:28;1.15;;;1.05;;
29168;SDS011;16219;42.864;23.360;2023-02-28T16:01:00;1.55;;;1.35;;
29168;SDS011;16219;42.864;23.360;2023-02-28T16:03:36;0.90;;;0.90;;
29168;SDS011;16219;42.864;23.360;2023-02-28T16:08:59;5.72;;;1.67;;
29168;SDS011;16219;42.864;23.360;2023-02-28T16:11:26;2.17;;;1.52;;
29168;SDS011;16219;42.864;23.360;2023-02-28T16:13:54;2.53;;;1.73;;
29168;SDS011;16219;42.864;23.360;2023-02-28T16:16:22;0.75;;;0.75;;
29168;SDS011;16219;42.864;23.360;2023-02-28T16:18:51;0.85;;;0.73;;
29168;SDS011;16219;42.864;23.360;2023-02-28T16:21:19;1.30;;;1.25;;
29168;SDS011;16219;42.864;23.360;2023-02-28T16:23:48;2.65;;;1.02;;
29168;SDS011;16219;42.864;23.360;2023-02-28T16:26:18;2.28;;;1.25;;
29168;SDS011;16219;42.864;23.360;2023-02-28T16:28:48;1.40;;;1.25;;
29168;SDS011;16219;42.864;23.360;2023-02-28T16:31:16;0.88;;;0.88;;
29168;SDS011;16219;42.864;23.360;2023-02-28T16:33:44;0.88;;;0.85;;
29168;SDS011;16219;42.864;23.360;2023-02-28T16:36:16;1.80;;;1.33;;
29168;SDS011;16219;42.864;23.360;2023-02-28T16:38:45;1.20;;;1.10;;
29168;SDS011;16219;42.864;23.360;2023-02-28T16:41:14;4.90;;;1.52;;
29168;SDS011;16219;42.864;23.360;2023-02-28T16:43:46;1.35;;;1.25;;
29168;SDS011;16219;42.864;23.360;2023-02-28T16:46:15;3.40;;;2.97;;
29168;SDS011;16219;42.864;23.360;2023-02-28T16:48:43;2.72;;;1.48;;
29168;SDS011;16219;42.864;23.360;2023-02-28T16:51:14;6.13;;;1.20;;
29168;SDS011;16219;42.864;23.360;2023-02-28T16:53:42;2.70;;;1.25;;
29168;SDS011;16219;42.864;23.360;2023-02-28T16:56:14;14.45;;;1.38;;
29168;SDS011;16219;42.864;23.360;2023-02-28T16:58:44;3.55;;;1.10;;
29168;SDS011;16219;42.864;23.360;2023-02-28T17:01:12;6.70;;;1.35;;
29168;SDS011;16219;42.864;23.360;2023-02-28T17:03:39;1.13;;;1.05;;
29168;SDS011;16219;42.864;23.360;2023-02-28T17:06:11;4.32;;;1.30;;
29168;SDS011;16219;42.864;23.360;2023-02-28T17:08:44;1.08;;;0.98;;
29168;SDS011;16219;42.864;23.360;2023-02-28T17:11:13;1.52;;;1.42;;
29168;SDS011;16219;42.864;23.360;2023-02-28T17:13:41;0.90;;;0.88;;
29168;SDS011;16219;42.864;23.360;2023-02-28T17:16:11;4.13;;;1.52;;
29168;SDS011;16219;42.864;23.360;2023-02-28T17:18:44;2.60;;;1.10;;
29168;SDS011;16219;42.864;23.360;2023-02-28T17:21:13;1.15;;;1.15;;
29168;SDS011;16219;42.864;23.360;2023-02-28T17:23:41;1.48;;;1.17;;
29168;SDS011;16219;42.864;23.360;2023-02-28T17:26:12;0.73;;;0.73;;
29168;SDS011;16219;42.864;23.360;2023-02-28T17:28:45;0.88;;;0.88;;
29168;SDS011;16219;42.864;23.360;2023-02-28T17:31:14;0.60;;;0.60;;
29168;SDS011;16219;42.864;23.360;2023-02-28T17:33:42;1.08;;;0.98;;
29168;SDS011;16219;42.864;23.360;2023-02-28T17:36:10;1.25;;;1.15;;
29168;SDS011;16219;42.864;23.360;2023-02-28T17:38:41;2.75;;;1.65;;
29168;SDS011;16219;42.864;23.360;2023-02-28T17:41:10;1.08;;;1.00;;
29168;SDS011;16219;42.864;23.360;2023-02-28T17:43:39;1.50;;;1.40;;
29168;SDS011;16219;42.864;23.360;2023-02-28T17:46:08;1.80;;;0.93;;
29168;SDS011;16219;42.864;23.360;2023-02-28T17:48:45;2.80;;;1.17;;
29168;SDS011;16219;42.864;23.360;2023-02-28T17:51:13;0.90;;;0.85;;
29168;SDS011;16219;42.864;23.360;2023-02-28T17:53:42;0.73;;;0.73;;
29168;SDS011;16219;42.864;23.360;2023-02-28T17:56:11;0.80;;;0.77;;
29168;SDS011;16219;42.864;23.360;2023-02-28T17:58:42;0.60;;;0.60;;
29168;SDS011;16219;42.864;23.360;2023-02-28T18:01:09;0.90;;;0.90;;